Time;durP1;ratioP1;P1;durP2;ratioP2;P2;SDS_P1;SDS_P2;PMS_P1;PMS_P2;Temp;Humidity;BMP_temperature;BMP_pressure;BME280_temperature;BME280_humidity;BME280_pressure;Samples;Min_cycle;Max_cycle;Signal;HPM_P1;HPM_P2
2023/07/05 00:00:17;;;;;;;4.13;2.10;;;17.20;93.40;;;;;;5016186;28;20100;-73
2023/07/05 00:02:42;;;;;;;5.15;2.05;;;17.10;93.60;;;;;;5016959;28;20326;-74
2023/07/05 00:05:08;;;;;;;4.45;1.77;;;17.00;94.10;;;;;;5015383;28;20026;-72
2023/07/05 00:07:34;;;;;;;4.55;1.85;;;16.90;94.40;;;;;;5017131;28;20053;-72
2023/07/05 00:10:00;;;;;;;4.22;1.80;;;16.80;94.70;;;;;;5015539;28;20095;-72
2023/07/05 00:12:26;;;;;;;4.57;2.10;;;16.80;94.70;;;;;;5016187;28;20133;-73
2023/07/05 00:14:52;;;;;;;6.05;2.13;;;16.80;94.70;;;;;;5016180;28;20101;-73
2023/07/05 00:17:17;;;;;;;4.70;1.83;;;16.90;94.40;;;;;;5016674;28;20029;-73
2023/07/05 00:19:43;;;;;;;3.22;1.70;;;17.00;94.00;;;;;;5016107;28;20109;-74
2023/07/05 00:22:08;;;;;;;3.05;1.60;;;17.10;94.00;;;;;;5015662;28;20037;-73
2023/07/05 00:24:34;;;;;;;5.15;1.80;;;17.10;93.80;;;;;;5016566;28;20470;-74
2023/07/05 00:27:00;;;;;;;5.90;2.30;;;17.30;92.90;;;;;;4999414;28;20415;-73
2023/07/05 00:29:26;;;;;;;5.45;1.80;;;17.50;92.60;;;;;;5016796;28;20022;-73
2023/07/05 00:31:52;;;;;;;3.05;1.50;;;17.60;92.50;;;;;;5016594;28;20025;-74
2023/07/05 00:34:18;;;;;;;3.72;1.75;;;17.60;92.60;;;;;;5015722;28;20041;-74
2023/07/05 00:36:44;;;;;;;5.82;1.85;;;17.60;92.50;;;;;;5014827;28;20064;-74
2023/07/05 00:39:09;;;;;;;4.00;1.73;;;17.60;92.70;;;;;;5013451;28;20147;-73
2023/07/05 00:41:35;;;;;;;3.35;1.65;;;17.60;92.80;;;;;;4997956;28;20054;-73
2023/07/05 00:44:01;;;;;;;4.05;1.90;;;17.60;92.60;;;;;;5016363;28;20069;-73
2023/07/05 00:46:30;;;;;;;3.78;1.65;;;17.60;92.80;;;;;;5016308;28;20025;-73
2023/07/05 00:49:12;;;;;;;5.80;1.83;;;17.60;92.60;;;;;;5014653;28;20033;-73
2023/07/05 00:51:50;;;;;;;3.22;1.50;;;17.70;92.10;;;;;;5013501;28;20049;-73
2023/07/05 00:54:22;;;;;;;4.47;1.60;;;17.80;91.50;;;;;;5013331;28;20414;-73
2023/07/05 00:56:54;;;;;;;4.03;1.70;;;18.00;91.30;;;;;;5015417;28;20386;-74
2023/07/05 00:59:23;;;;;;;3.30;1.55;;;18.00;92.30;;;;;;5014735;28;20033;-74
2023/07/05 01:01:51;;;;;;;4.10;1.60;;;17.90;93.20;;;;;;5015374;28;20044;-75
2023/07/05 01:04:20;;;;;;;3.30;1.60;;;17.80;93.20;;;;;;4996991;28;20061;-74
2023/07/05 01:06:47;;;;;;;5.95;1.77;;;17.80;93.30;;;;;;5010621;28;20311;-73
2023/07/05 01:09:12;;;;;;;3.50;1.70;;;17.80;92.90;;;;;;5013952;28;20018;-74
2023/07/05 01:12:24;;;;;;;3.92;2.05;;;17.90;92.30;;;;;;5013731;28;20033;-74
2023/07/05 01:15:03;;;;;;;4.25;1.67;;;18.00;92.10;;;;;;5014591;28;20092;-74
2023/07/05 01:17:42;;;;;;;3.67;1.55;;;18.00;91.40;;;;;;5015367;28;20411;-74
2023/07/05 01:20:10;;;;;;;6.22;1.80;;;18.10;91.30;;;;;;5014014;28;20142;-73
2023/07/05 01:23:14;;;;;;;4.82;1.75;;;18.10;91.00;;;;;;5015627;28;20024;-74
2023/07/05 01:25:48;;;;;;;5.25;1.88;;;18.10;91.40;;;;;;4971206;28;20022;-74
2023/07/05 01:28:26;;;;;;;5.28;1.90;;;18.00;91.50;;;;;;5008840;28;20161;-74
2023/07/05 01:31:36;;;;;;;4.35;1.88;;;17.80;91.80;;;;;;5015130;28;20026;-74
2023/07/05 01:34:07;;;;;;;4.78;1.98;;;17.70;92.30;;;;;;5012812;28;20026;-74
2023/07/05 01:36:34;;;;;;;5.07;1.90;;;17.60;92.60;;;;;;5012670;28;20057;-74
2023/07/05 01:39:00;;;;;;;4.82;1.63;;;17.60;92.80;;;;;;4997643;28;20037;-74
2023/07/05 01:41:25;;;;;;;3.53;1.83;;;17.50;93.10;;;;;;5014660;28;20050;-74
2023/07/05 01:43:52;;;;;;;6.20;2.00;;;17.50;93.20;;;;;;5013815;28;20048;-75
2023/07/05 01:46:54;;;;;;;4.10;1.85;;;17.40;93.50;;;;;;5014988;28;20025;-74
2023/07/05 01:49:36;;;;;;;4.78;2.15;;;17.40;93.70;;;;;;5012391;28;20030;-75
2023/07/05 01:52:12;;;;;;;4.43;1.83;;;17.40;93.80;;;;;;5012098;28;20473;-74
2023/07/05 01:55:08;;;;;;;6.40;1.75;;;17.40;93.70;;;;;;4993438;28;20041;-74
2023/07/05 01:57:54;;;;;;;3.45;1.60;;;17.50;93.70;;;;;;5001631;28;20325;-74
2023/07/05 02:00:22;;;;;;;7.68;1.80;;;17.60;93.40;;;;;;5013569;28;20033;-74
2023/07/05 02:03:07;;;;;;;4.40;1.70;;;17.60;93.30;;;;;;5012581;28;20038;-74
2023/07/05 02:05:34;;;;;;;4.10;2.10;;;17.70;93.20;;;;;;5011550;28;20033;-75
2023/07/05 02:07:59;;;;;;;3.83;1.80;;;17.70;94.20;;;;;;5013229;28;20030;-74
2023/07/05 02:10:25;;;;;;;5.18;1.95;;;17.60;94.60;;;;;;5016757;28;20028;-74
2023/07/05 02:12:54;;;;;;;4.82;2.10;;;17.50;95.00;;;;;;4995772;28;20038;-74
2023/07/05 02:15:21;;;;;;;5.35;1.80;;;17.40;94.90;;;;;;5004579;28;20103;-75
2023/07/05 02:17:47;;;;;;;4.25;1.80;;;17.30;94.90;;;;;;4999314;28;20061;-74
2023/07/05 02:20:13;;;;;;;4.60;2.08;;;17.30;95.20;;;;;;4997243;28;20386;-75
2023/07/05 02:22:38;;;;;;;4.10;2.00;;;17.30;94.80;;;;;;5018278;28;20430;-74
2023/07/05 02:25:05;;;;;;;4.78;1.67;;;17.40;94.80;;;;;;5016858;28;20038;-75
2023/07/05 02:27:30;;;;;;;4.03;1.70;;;17.40;94.80;;;;;;5017626;28;20053;-75
2023/07/05 02:29:57;;;;;;;5.07;1.83;;;17.40;94.70;;;;;;5017822;28;20484;-74
2023/07/05 02:32:23;;;;;;;6.10;2.25;;;17.40;94.40;;;;;;5017609;28;20084;-75
2023/07/05 02:34:48;;;;;;;6.68;2.22;;;17.50;94.50;;;;;;5016970;28;20866;-75
2023/07/05 02:37:14;;;;;;;5.78;2.40;;;17.50;95.20;;;;;;5016844;28;20144;-77
2023/07/05 02:39:41;;;;;;;5.95;2.08;;;17.20;96.10;;;;;;5016829;28;20041;-77
2023/07/05 02:42:07;;;;;;;4.18;2.05;;;16.90;96.30;;;;;;5017476;28;20435;-76
2023/07/05 02:44:33;;;;;;;4.57;2.10;;;16.60;95.60;;;;;;5018296;28;20084;-76
2023/07/05 02:46:58;;;;;;;5.35;2.13;;;16.50;96.40;;;;;;5000486;28;20367;-77
2023/07/05 02:49:24;;;;;;;8.43;2.05;;;16.50;96.30;;;;;;5017382;28;20030;-76
2023/07/05 02:51:51;;;;;;;4.78;2.33;;;16.50;95.20;;;;;;5015509;28;20026;-76
2023/07/05 02:54:16;;;;;;;9.88;2.83;;;16.30;95.60;;;;;;5017455;28;20116;-77
2023/07/05 02:56:42;;;;;;;8.50;2.50;;;16.20;93.80;;;;;;5017504;28;20108;-78
2023/07/05 02:59:07;;;;;;;6.43;3.00;;;16.00;91.10;;;;;;5018013;28;20041;-77
2023/07/05 03:01:33;;;;;;;6.65;2.75;;;15.90;90.40;;;;;;5016481;28;20022;-76
2023/07/05 03:03:59;;;;;;;7.30;2.72;;;15.80;88.30;;;;;;5015454;28;20091;-75
2023/07/05 03:06:24;;;;;;;5.32;2.50;;;15.70;86.70;;;;;;5013116;28;20018;-75
2023/07/05 03:08:50;;;;;;;4.80;2.10;;;15.60;87.20;;;;;;4991621;28;20411;-74
2023/07/05 03:11:15;;;;;;;6.47;2.50;;;15.50;87.50;;;;;;5018404;28;20490;-74
2023/07/05 03:13:41;;;;;;;7.97;2.67;;;15.40;86.70;;;;;;5016642;28;20033;-75
2023/07/05 03:16:07;;;;;;;5.40;3.00;;;15.40;84.10;;;;;;5016757;28;20037;-74
2023/07/05 03:18:32;;;;;;;10.77;3.20;;;15.30;82.30;;;;;;5016569;28;20033;-73
2023/07/05 03:20:58;;;;;;;5.70;2.80;;;15.30;80.20;;;;;;5012740;28;20026;-73
2023/07/05 03:23:24;;;;;;;6.90;2.90;;;15.20;78.30;;;;;;5013229;28;20030;-74
2023/07/05 03:25:58;;;;;;;4.20;2.42;;;15.20;76.50;;;;;;5012670;28;20105;-73
2023/07/05 03:28:27;;;;;;;6.38;2.55;;;15.10;75.50;;;;;;5017378;28;20032;-74
2023/07/05 03:31:02;;;;;;;6.95;2.60;;;15.00;76.30;;;;;;5015043;28;20129;-73
2023/07/05 03:33:28;;;;;;;4.57;2.30;;;15.00;77.70;;;;;;5018970;28;20050;-73
2023/07/05 03:35:58;;;;;;;5.88;2.15;;;15.00;76.50;;;;;;5012158;28;20058;-73
2023/07/05 03:38:26;;;;;;;4.05;1.77;;;15.00;75.20;;;;;;5003017;28;20088;-74
2023/07/05 03:41:03;;;;;;;5.68;2.20;;;14.90;78.20;;;;;;5011756;28;20061;-73
2023/07/05 03:43:33;;;;;;;4.78;1.95;;;14.80;78.30;;;;;;5016297;28;20030;-73
2023/07/05 03:45:59;;;;;;;4.65;2.20;;;14.80;77.70;;;;;;4998539;28;20318;-74
2023/07/05 03:48:26;;;;;;;4.15;1.90;;;14.80;76.50;;;;;;4998801;28;20358;-74
2023/07/05 03:50:55;;;;;;;4.65;2.03;;;14.80;77.00;;;;;;5025535;28;20026;-74
2023/07/05 03:53:24;;;;;;;5.07;2.35;;;14.90;78.90;;;;;;5014681;28;20100;-74
2023/07/05 03:55:51;;;;;;;4.55;2.22;;;14.90;78.30;;;;;;5016507;28;20105;-74
2023/07/05 03:58:17;;;;;;;5.97;2.30;;;14.90;77.60;;;;;;5013705;28;20049;-73
2023/07/05 04:00:42;;;;;;;4.15;2.03;;;14.80;77.40;;;;;;5015703;28;20026;-74
2023/07/05 04:03:08;;;;;;;5.25;2.58;;;14.80;77.40;;;;;;5011686;28;20034;-74
2023/07/05 04:05:34;;;;;;;5.18;2.53;;;14.80;77.90;;;;;;5011359;28;20102;-73
2023/07/05 04:08:00;;;;;;;6.07;2.38;;;14.90;77.20;;;;;;4998241;28;20040;-73
2023/07/05 04:10:26;;;;;;;4.10;2.10;;;14.90;78.80;;;;;;5014090;28;20462;-73
2023/07/05 04:12:51;;;;;;;4.25;2.00;;;14.90;79.00;;;;;;4997633;28;20030;-74
2023/07/05 04:15:17;;;;;;;3.70;2.22;;;14.90;79.50;;;;;;5015498;28;20042;-73
2023/07/05 04:17:42;;;;;;;4.72;2.15;;;14.90;78.90;;;;;;5014310;28;20030;-73
2023/07/05 04:20:08;;;;;;;4.47;2.30;;;14.90;79.10;;;;;;5015777;28;20038;-73
2023/07/05 04:22:40;;;;;;;6.15;2.25;;;14.90;79.00;;;;;;5016177;28;20430;-73
2023/07/05 04:25:07;;;;;;;4.43;2.05;;;14.90;78.60;;;;;;4999445;28;20026;-73
2023/07/05 04:27:32;;;;;;;4.97;2.22;;;15.00;79.70;;;;;;5016885;28;20307;-73
2023/07/05 04:29:58;;;;;;;4.88;2.20;;;15.00;80.10;;;;;;5016667;28;20030;-72
2023/07/05 04:32:23;;;;;;;4.50;2.30;;;15.10;81.60;;;;;;5015618;28;20037;-74
2023/07/05 04:34:49;;;;;;;3.92;2.25;;;15.10;82.10;;;;;;5014606;28;20363;-74
2023/07/05 04:37:15;;;;;;;4.28;2.28;;;15.10;82.30;;;;;;5020632;28;20029;-73
2023/07/05 04:39:40;;;;;;;5.38;2.58;;;15.20;82.50;;;;;;5016882;28;20022;-74
2023/07/05 04:42:06;;;;;;;6.28;2.40;;;15.20;83.30;;;;;;5016164;28;20058;-74
2023/07/05 04:44:31;;;;;;;7.85;3.22;;;15.20;83.70;;;;;;5015868;28;20029;-73
2023/07/05 04:46:57;;;;;;;5.63;2.67;;;15.30;83.60;;;;;;5015563;28;20109;-74
2023/07/05 04:49:23;;;;;;;4.80;2.40;;;15.30;86.20;;;;;;5012322;28;20033;-74
2023/07/05 04:51:48;;;;;;;6.88;3.08;;;15.30;86.00;;;;;;5012687;28;20022;-74
2023/07/05 04:54:16;;;;;;;6.95;3.30;;;15.20;85.60;;;;;;4996936;28;20030;-74
2023/07/05 04:56:41;;;;;;;5.13;3.00;;;15.20;87.40;;;;;;5012512;28;20037;-75
2023/07/05 04:59:07;;;;;;;5.07;3.00;;;15.30;87.80;;;;;;5015978;28;20319;-75
2023/07/05 05:01:32;;;;;;;5.38;3.15;;;15.30;88.70;;;;;;5015739;28;20498;-75
2023/07/05 05:03:58;;;;;;;5.68;2.92;;;15.40;89.80;;;;;;5010004;28;20033;-75
2023/07/05 05:06:23;;;;;;;5.82;3.28;;;15.50;89.60;;;;;;5009964;28;20018;-75
2023/07/05 05:08:49;;;;;;;7.35;3.33;;;15.60;92.30;;;;;;5013980;28;20030;-75
2023/07/05 05:11:14;;;;;;;5.95;3.20;;;15.80;91.40;;;;;;5011699;28;20030;-75
2023/07/05 05:13:40;;;;;;;5.93;3.00;;;15.90;92.00;;;;;;5015004;28;20059;-75
2023/07/05 05:16:06;;;;;;;6.13;3.47;;;15.90;93.20;;;;;;5012933;28;20030;-75
2023/07/05 05:18:34;;;;;;;7.30;3.17;;;16.10;95.70;;;;;;5014693;28;20079;-75
2023/07/05 05:21:00;;;;;;;4.68;3.05;;;16.30;95.40;;;;;;5011651;28;20026;-75
2023/07/05 05:23:25;;;;;;;7.10;3.17;;;16.40;94.70;;;;;;5011047;28;20453;-75
2023/07/05 05:25:52;;;;;;;5.80;2.97;;;16.50;95.40;;;;;;5013634;28;20041;-74
2023/07/05 05:28:17;;;;;;;4.88;2.97;;;16.60;96.00;;;;;;5015449;28;20029;-75
2023/07/05 05:30:44;;;;;;;5.50;3.03;;;16.70;96.40;;;;;;5014845;28;20422;-75
2023/07/05 05:33:10;;;;;;;6.35;3.08;;;16.80;96.70;;;;;;5015294;28;20080;-75
2023/07/05 05:35:36;;;;;;;5.40;2.80;;;16.90;97.70;;;;;;4994999;28;20026;-75
2023/07/05 05:38:03;;;;;;;6.65;2.70;;;17.10;97.70;;;;;;5014753;28;20332;-75
2023/07/05 05:40:29;;;;;;;5.22;2.83;;;17.40;97.50;;;;;;5015057;28;20026;-74
2023/07/05 05:42:56;;;;;;;5.03;2.65;;;17.60;97.20;;;;;;4998302;28;20339;-75
2023/07/05 05:45:22;;;;;;;5.95;2.80;;;17.80;96.80;;;;;;5019936;28;20374;-75
2023/07/05 05:47:47;;;;;;;5.38;2.70;;;18.00;96.70;;;;;;5018706;28;20058;-75
2023/07/05 05:50:16;;;;;;;6.32;2.80;;;18.20;95.50;;;;;;5018428;28;20033;-75
2023/07/05 05:52:42;;;;;;;4.00;2.50;;;18.30;96.00;;;;;;5032446;28;20022;-75
2023/07/05 05:55:07;;;;;;;5.15;2.70;;;18.20;95.60;;;;;;5019680;28;20022;-74
2023/07/05 05:57:33;;;;;;;4.38;2.33;;;18.00;95.80;;;;;;5018361;28;20076;-74
2023/07/05 05:59:59;;;;;;;6.57;2.83;;;18.00;96.20;;;;;;5016961;28;20026;-75
2023/07/05 06:02:25;;;;;;;5.78;2.35;;;18.10;96.30;;;;;;5017093;28;20105;-75
2023/07/05 06:04:50;;;;;;;4.85;2.75;;;18.20;95.70;;;;;;5016078;28;20057;-75
2023/07/05 06:07:16;;;;;;;6.75;2.60;;;18.20;95.10;;;;;;5017885;28;20038;-75
2023/07/05 06:09:48;;;;;;;5.25;2.65;;;18.20;95.20;;;;;;5017037;28;20068;-74
2023/07/05 06:12:15;;;;;;;6.78;2.80;;;18.20;95.50;;;;;;5018172;28;20025;-74
2023/07/05 06:14:41;;;;;;;4.28;2.30;;;18.30;95.10;;;;;;5016600;28;20083;-75
2023/07/05 06:17:06;;;;;;;6.03;2.28;;;18.30;94.70;;;;;;5018090;28;20097;-74
2023/07/05 06:19:32;;;;;;;4.40;2.35;;;18.40;94.00;;;;;;5018646;28;20456;-75
2023/07/05 06:21:59;;;;;;;3.67;1.77;;;18.40;94.50;;;;;;4999233;28;20044;-75
2023/07/05 06:24:25;;;;;;;3.90;2.10;;;18.50;94.20;;;;;;5019136;28;20030;-75
2023/07/05 06:26:50;;;;;;;5.30;2.40;;;18.50;94.20;;;;;;5017486;28;20056;-75
2023/07/05 06:29:16;;;;;;;4.85;2.50;;;18.60;94.20;;;;;;5017925;28;20100;-75
2023/07/05 06:31:41;;;;;;;3.85;2.00;;;18.80;93.50;;;;;;5017436;28;20025;-75
2023/07/05 06:34:07;;;;;;;5.10;2.28;;;18.70;93.10;;;;;;4998749;28;20030;-75
2023/07/05 06:39:56;;;;;;;3.53;1.80;;;18.70;93.60;;;;;;5003396;28;20072;-74
2023/07/05 06:42:21;;;;;;;4.07;2.00;;;19.00;92.90;;;;;;5017930;28;20128;-74
2023/07/05 06:44:49;;;;;;;5.10;2.00;;;19.30;91.30;;;;;;5018248;28;20156;-76
2023/07/05 06:47:15;;;;;;;7.57;2.20;;;19.60;91.10;;;;;;5017211;28;20034;-76
2023/07/05 06:49:44;;;;;;;5.10;1.98;;;19.90;91.30;;;;;;5018083;28;20030;-75
2023/07/05 06:52:12;;;;;;;5.53;1.80;;;19.90;90.50;;;;;;5016515;28;20315;-75
2023/07/05 06:54:38;;;;;;;5.97;1.80;;;19.90;90.10;;;;;;5017658;28;20454;-75
2023/07/05 06:57:04;;;;;;;3.63;1.83;;;20.20;89.50;;;;;;5018164;28;20153;-75
2023/07/05 06:59:29;;;;;;;5.30;1.90;;;20.40;89.90;;;;;;5017291;28;20061;-75
2023/07/05 07:01:55;;;;;;;5.03;2.00;;;20.50;90.30;;;;;;5017581;28;20037;-75
2023/07/05 07:04:20;;;;;;;4.00;2.03;;;20.70;88.90;;;;;;5017061;28;20033;-74
2023/07/05 07:06:46;;;;;;;4.65;2.05;;;20.60;89.10;;;;;;5014841;28;20308;-75
2023/07/05 07:09:12;;;;;;;3.67;1.80;;;20.40;89.80;;;;;;4997886;28;20024;-75
2023/07/05 07:11:38;;;;;;;4.28;1.90;;;20.10;90.60;;;;;;5016066;28;20037;-74
2023/07/05 07:14:04;;;;;;;4.65;2.20;;;19.80;91.50;;;;;;5016746;28;20029;-75
2023/07/05 07:16:29;;;;;;;4.15;2.30;;;19.30;94.30;;;;;;5016258;28;20033;-74
2023/07/05 07:18:55;;;;;;;5.97;2.35;;;18.70;95.70;;;;;;5017672;28;20038;-74
2023/07/05 07:21:21;;;;;;;6.45;2.95;;;18.20;96.30;;;;;;5016431;28;20058;-75
2023/07/05 07:23:47;;;;;;;8.00;3.10;;;17.40;95.80;;;;;;5018245;28;20037;-75
2023/07/05 07:26:17;;;;;;;8.45;3.03;;;16.70;92.10;;;;;;4999777;28;20034;-76
2023/07/05 07:28:46;;;;;;;9.00;3.30;;;16.20;89.20;;;;;;5016689;28;20026;-76
2023/07/05 07:31:21;;;;;;;7.25;3.35;;;15.90;85.20;;;;;;5017042;28;20036;-76
2023/07/05 07:33:47;;;;;;;8.25;4.07;;;15.70;81.80;;;;;;5017391;28;20030;-75
2023/07/05 07:36:19;;;;;;;11.43;4.05;;;15.60;78.60;;;;;;4997464;28;20425;-75
2023/07/05 07:38:46;;;;;;;7.53;4.07;;;15.40;75.00;;;;;;5002147;28;20449;-74
2023/07/05 07:41:23;;;;;;;7.45;4.28;;;15.30;70.60;;;;;;5016122;28;20042;-74
2023/07/05 07:43:51;;;;;;;6.60;4.38;;;15.30;70.50;;;;;;5016507;28;20104;-74
2023/07/05 07:46:19;;;;;;;9.38;4.38;;;15.30;68.70;;;;;;5017103;28;20022;-74
2023/07/05 07:48:47;;;;;;;7.55;4.00;;;15.40;66.50;;;;;;5017221;28;20371;-74
2023/07/05 07:51:14;;;;;;;6.28;3.60;;;15.40;67.00;;;;;;5015940;28;20499;-75
2023/07/05 07:53:39;;;;;;;8.25;4.50;;;15.40;67.50;;;;;;5000241;28;20042;-74
2023/07/05 07:56:13;;;;;;;7.30;4.47;;;15.30;67.60;;;;;;5015870;28;20026;-74
2023/07/05 07:58:39;;;;;;;9.82;4.75;;;15.30;67.00;;;;;;5014921;28;20323;-74
2023/07/05 08:01:22;;;;;;;9.38;4.97;;;15.30;65.70;;;;;;5015664;28;20041;-74
2023/07/05 08:03:49;;;;;;;7.93;4.85;;;15.30;64.70;;;;;;5013964;28;20025;-74
2023/07/05 08:06:15;;;;;;;7.90;3.45;;;15.20;65.30;;;;;;5013548;28;20037;-74
2023/07/05 08:08:44;;;;;;;5.70;3.03;;;15.10;66.70;;;;;;5016672;28;20025;-73
2023/07/05 08:11:09;;;;;;;6.78;2.53;;;15.10;67.90;;;;;;5021439;28;20100;-74
2023/07/05 08:13:37;;;;;;;7.53;3.05;;;14.80;75.60;;;;;;5018151;28;20491;-75
2023/07/05 08:16:03;;;;;;;6.55;3.00;;;14.60;71.10;;;;;;5016076;28;20029;-76
2023/07/05 08:18:29;;;;;;;7.55;3.70;;;14.50;67.40;;;;;;5015876;28;20399;-76
2023/07/05 08:20:56;;;;;;;9.48;3.83;;;14.40;66.00;;;;;;5014437;28;20105;-77
2023/07/05 08:23:22;;;;;;;5.70;2.55;;;14.40;64.30;;;;;;5016337;28;20442;-77
2023/07/05 08:25:57;;;;;;;5.95;3.00;;;14.40;64.20;;;;;;4998200;28;20026;-76
2023/07/05 08:28:24;;;;;;;4.90;2.50;;;14.50;63.50;;;;;;4999725;28;20029;-75
2023/07/05 08:30:58;;;;;;;5.47;2.33;;;14.50;62.90;;;;;;4998143;28;20026;-75
2023/07/05 08:33:26;;;;;;;6.45;2.47;;;14.60;62.80;;;;;;5014081;28;20033;-74
2023/07/05 08:36:12;;;;;;;8.13;2.53;;;14.80;62.90;;;;;;4996552;28;20189;-75
2023/07/05 08:38:46;;;;;;;4.18;1.80;;;15.30;62.40;;;;;;5014604;28;20041;-74
2023/07/05 08:41:22;;;;;;;;;;;15.80;69.80;;;;;;5015039;28;20041;-74
2023/07/05 08:43:57;;;;;;;4.22;1.77;;;15.70;81.80;;;;;;5015403;28;20325;-75
2023/07/05 08:46:26;;;;;;;3.78;1.67;;;15.50;82.50;;;;;;5008022;28;20026;-74
2023/07/05 08:48:56;;;;;;;3.63;1.58;;;15.30;82.10;;;;;;4997012;28;20109;-74
2023/07/05 08:51:25;;;;;;;4.00;1.83;;;15.20;82.10;;;;;;5010949;28;20419;-74
2023/07/05 08:53:55;;;;;;;4.63;1.85;;;15.00;83.70;;;;;;5016679;28;20113;-74
2023/07/05 08:56:33;;;;;;;4.40;2.00;;;15.00;81.40;;;;;;5015903;28;20037;-74
2023/07/05 08:59:17;;;;;;;3.08;1.70;;;14.90;79.30;;;;;;5015373;28;20057;-74
2023/07/05 09:01:44;;;;;;;6.43;1.98;;;15.00;83.50;;;;;;5014612;28;20037;-74
2023/07/05 09:04:23;;;;;;;3.67;2.08;;;14.90;81.80;;;;;;5012873;28;20022;-74
2023/07/05 09:06:54;;;;;;;4.93;2.20;;;15.00;82.20;;;;;;5004647;28;20022;-74
2023/07/05 09:09:24;;;;;;;4.45;2.30;;;15.00;79.80;;;;;;5008539;28;20045;-74
2023/07/05 09:12:12;;;;;;;3.92;1.90;;;15.00;82.80;;;;;;4995729;28;21158;-75
2023/07/05 09:14:59;;;;;;;4.10;2.13;;;15.20;83.90;;;;;;5005931;28;20037;-75
2023/07/05 09:17:53;;;;;;;3.97;1.90;;;15.40;80.90;;;;;;5016084;28;20427;-75
2023/07/05 09:20:44;;;;;;;5.22;2.47;;;15.70;84.30;;;;;;5014407;28;20308;-75
2023/07/05 09:23:19;;;;;;;4.40;2.00;;;16.10;85.90;;;;;;5013351;28;20065;-75
2023/07/05 09:25:49;;;;;;;4.88;2.17;;;16.00;91.80;;;;;;4997086;28;20069;-75
2023/07/05 09:28:31;;;;;;;6.50;2.17;;;15.80;90.40;;;;;;5013702;28;20084;-75
2023/07/05 09:30:59;;;;;;;6.13;1.98;;;15.80;89.70;;;;;;5011953;28;20061;-73
2023/07/05 09:33:34;;;;;;;3.92;1.98;;;16.70;91.80;;;;;;5014698;28;20034;-74
2023/07/05 09:36:16;;;;;;;4.13;1.75;;;17.40;98.00;;;;;;5005969;28;20048;-74
2023/07/05 09:38:47;;;;;;;3.25;1.50;;;18.00;98.00;;;;;;5013332;28;20057;-75
2023/07/05 09:41:18;;;;;;;4.80;2.00;;;18.90;98.00;;;;;;5012988;28;20061;-76
2023/07/05 09:43:44;;;;;;;5.13;1.70;;;19.30;96.80;;;;;;5007043;28;20036;-76
2023/07/05 09:46:27;;;;;;;3.88;1.90;;;19.70;96.40;;;;;;5012565;28;20390;-76
2023/07/05 09:48:54;;;;;;;3.85;1.77;;;20.10;95.40;;;;;;5015844;28;20025;-75
2023/07/05 09:51:21;;;;;;;3.83;1.75;;;20.40;95.00;;;;;;4997005;28;20415;-75
2023/07/05 09:53:53;;;;;;;5.78;1.80;;;20.60;93.30;;;;;;5014001;28;20033;-76
2023/07/05 09:56:27;;;;;;;3.40;1.60;;;20.50;94.40;;;;;;5015494;28;20105;-75
2023/07/05 09:59:16;;;;;;;4.93;1.60;;;20.20;94.10;;;;;;5008997;28;20112;-75
2023/07/05 10:01:48;;;;;;;4.60;2.03;;;19.40;95.40;;;;;;5014907;28;20041;-75
2023/07/05 10:04:15;;;;;;;5.43;2.30;;;19.40;96.20;;;;;;5014155;28;20048;-75
2023/07/05 10:06:45;;;;;;;4.30;1.92;;;19.40;96.20;;;;;;5012950;28;20374;-75
2023/07/05 10:09:19;;;;;;;3.70;1.60;;;19.10;96.30;;;;;;5015636;28;20419;-74
2023/07/05 10:11:48;;;;;;;4.45;1.58;;;19.60;98.00;;;;;;5009798;28;20141;-74
2023/07/05 10:14:16;;;;;;;6.32;1.77;;;20.20;95.30;;;;;;5013314;28;20326;-74
2023/07/05 10:16:46;;;;;;;3.72;1.90;;;19.70;95.70;;;;;;5013182;28;20034;-74
2023/07/05 10:19:31;;;;;;;5.32;1.70;;;19.50;95.60;;;;;;5013642;28;20034;-74
2023/07/05 10:22:12;;;;;;;4.57;1.98;;;19.10;95.80;;;;;;5012373;28;20080;-74
2023/07/05 10:24:47;;;;;;;5.50;2.25;;;19.40;96.70;;;;;;5015233;28;20045;-74
2023/07/05 10:27:33;;;;;;;4.65;1.88;;;19.40;95.80;;;;;;5002100;28;20042;-74
2023/07/05 10:30:06;;;;;;;4.32;1.88;;;19.60;95.30;;;;;;5003105;28;20419;-74
2023/07/05 10:32:32;;;;;;;6.33;2.00;;;19.30;96.30;;;;;;5019212;28;20030;-74
2023/07/05 10:35:00;;;;;;;3.92;2.28;;;18.80;96.20;;;;;;5017708;28;20066;-74
2023/07/05 10:37:32;;;;;;;6.80;1.92;;;18.40;96.60;;;;;;5007423;28;20041;-74
2023/07/05 10:40:00;;;;;;;7.30;2.35;;;18.30;97.00;;;;;;5000189;28;20113;-74
2023/07/05 10:42:26;;;;;;;4.55;2.13;;;18.00;97.00;;;;;;5018921;28;20343;-75
2023/07/05 10:44:52;;;;;;;4.50;2.40;;;18.50;96.50;;;;;;5016733;28;20061;-74
2023/07/05 10:47:19;;;;;;;4.32;2.00;;;19.60;95.00;;;;;;5018746;28;20414;-75
2023/07/05 10:49:47;;;;;;;5.50;2.10;;;20.40;92.80;;;;;;5018394;28;20100;-75
2023/07/05 10:52:16;;;;;;;3.67;1.90;;;20.30;91.10;;;;;;4999999;28;20025;-75
2023/07/05 10:55:14;;;;;;;5.32;2.55;;;20.90;90.00;;;;;;5017001;28;20036;-75
2023/07/05 10:57:50;;;;;;;5.38;2.50;;;21.40;87.20;;;;;;4989437;28;20075;-74
2023/07/05 11:00:39;;;;;;;6.32;2.38;;;21.40;87.60;;;;;;5018114;28;20423;-74
2023/07/05 11:03:21;;;;;;;5.50;2.10;;;21.20;86.10;;;;;;5017942;28;20120;-74
2023/07/05 11:05:55;;;;;;;7.43;2.50;;;21.50;87.00;;;;;;5016867;28;20026;-74
2023/07/05 11:08:27;;;;;;;5.47;2.47;;;21.50;85.00;;;;;;5016995;28;20734;-74
2023/07/05 11:10:56;;;;;;;5.93;2.60;;;21.30;87.40;;;;;;5015911;28;20021;-74
2023/07/05 11:13:22;;;;;;;5.30;2.58;;;21.40;86.80;;;;;;5016345;28;20041;-75
2023/07/05 11:15:48;;;;;;;4.60;2.50;;;21.30;86.50;;;;;;5016708;28;20026;-74
2023/07/05 11:18:20;;;;;;;5.43;2.58;;;21.00;84.90;;;;;;5015439;28;20140;-75
2023/07/05 11:20:56;;;;;;;5.95;2.92;;;21.10;83.40;;;;;;5017442;28;20156;-74
2023/07/05 11:23:41;;;;;;;5.80;2.63;;;21.50;84.80;;;;;;5015908;28;20913;-73
2023/07/05 11:26:09;;;;;;;5.57;2.85;;;21.70;83.90;;;;;;5017641;28;20022;-75
2023/07/05 11:28:37;;;;;;;6.20;2.92;;;21.40;83.70;;;;;;5017386;28;20022;-74
2023/07/05 11:31:23;;;;;;;4.35;2.60;;;21.10;84.80;;;;;;5015593;28;20018;-74
2023/07/05 11:34:20;;;;;;;6.93;3.25;;;21.00;85.20;;;;;;5015939;28;20029;-75
2023/07/05 11:37:12;;;;;;;5.07;2.85;;;21.20;85.50;;;;;;5011442;28;20049;-73
2023/07/05 11:39:43;;;;;;;7.22;2.90;;;20.70;85.00;;;;;;4984571;28;20037;-73
2023/07/05 11:42:14;;;;;;;5.30;3.00;;;20.80;84.00;;;;;;5014019;28;20050;-74
2023/07/05 11:44:44;;;;;;;6.93;3.33;;;20.80;83.20;;;;;;5013596;28;20030;-74
2023/07/05 11:47:30;;;;;;;5.60;3.17;;;20.60;81.90;;;;;;5015401;28;20029;-73
2023/07/05 11:50:10;;;;;;;5.88;2.97;;;20.30;82.30;;;;;;5015675;28;20026;-73
2023/07/05 11:52:50;;;;;;;5.05;2.83;;;20.60;82.70;;;;;;5015890;28;20022;-73
2023/07/05 11:55:27;;;;;;;5.72;3.40;;;21.30;81.30;;;;;;5017070;28;20034;-74
2023/07/05 11:58:14;;;;;;;8.65;3.50;;;21.50;78.60;;;;;;5015991;28;20076;-73
2023/07/05 12:00:51;;;;;;;6.32;3.13;;;21.60;78.20;;;;;;5013328;28;20128;-74
2023/07/05 12:03:22;;;;;;;5.03;2.80;;;22.00;76.20;;;;;;5010564;28;20121;-74
2023/07/05 12:06:17;;;;;;;5.65;3.30;;;21.50;75.70;;;;;;5015683;28;20025;-74
2023/07/05 12:09:04;;;;;;;5.60;3.30;;;21.00;78.20;;;;;;5012856;28;20357;-73
2023/07/05 12:11:38;;;;;;;6.32;3.47;;;20.90;77.10;;;;;;5009820;28;20048;-74
2023/07/05 12:14:15;;;;;;;8.80;3.60;;;21.30;78.60;;;;;;5017177;28;20018;-74
2023/07/05 12:16:41;;;;;;;7.05;3.35;;;21.20;77.60;;;;;;5007072;28;20069;-73
2023/07/05 12:19:16;;;;;;;8.60;3.92;;;20.90;76.30;;;;;;5016293;28;20109;-74
2023/07/05 12:21:55;;;;;;;6.82;4.13;;;21.80;76.60;;;;;;5015715;28;20026;-73
2023/07/05 12:24:20;;;;;;;13.25;7.40;;;22.80;74.10;;;;;;5016150;28;20129;-72
2023/07/05 12:26:46;;;;;;;8.25;3.75;;;23.50;72.10;;;;;;5017003;28;20097;-72
2023/07/05 12:29:28;;;;;;;8.77;5.07;;;23.80;71.10;;;;;;5016967;28;20433;-72
2023/07/05 12:32:15;;;;;;;6.68;3.85;;;23.50;68.10;;;;;;5017088;28;20094;-72
2023/07/05 12:34:40;;;;;;;6.05;3.65;;;23.10;70.40;;;;;;5016490;28;20046;-73
2023/07/05 12:37:08;;;;;;;12.63;6.28;;;23.00;69.80;;;;;;5014848;28;20045;-73
2023/07/05 12:39:33;;;;;;;8.40;5.10;;;23.00;69.40;;;;;;5016032;28;20030;-73
2023/07/05 12:42:08;;;;;;;11.77;6.28;;;23.10;70.50;;;;;;4993244;28;20113;-73
2023/07/05 12:44:35;;;;;;;8.27;4.28;;;23.80;69.70;;;;;;5011356;28;20030;-73
2023/07/05 12:47:15;;;;;;;16.92;8.77;;;24.00;69.30;;;;;;5016819;28;20022;-74
2023/07/05 12:49:41;;;;;;;6.75;3.40;;;24.70;67.80;;;;;;5016763;28;20116;-74
2023/07/05 12:52:21;;;;;;;9.02;5.30;;;24.70;66.70;;;;;;5012216;28;20018;-73
2023/07/05 12:54:47;;;;;;;9.43;4.43;;;24.70;66.30;;;;;;5016746;28;20113;-74
2023/07/05 12:57:26;;;;;;;11.55;7.80;;;24.10;64.90;;;;;;5015668;28;20038;-74
2023/07/05 12:59:53;;;;;;;11.13;6.80;;;23.20;66.00;;;;;;5016511;28;20037;-73
2023/07/05 13:02:28;;;;;;;11.60;7.53;;;22.90;65.50;;;;;;5016699;28;20406;-75
2023/07/05 13:04:54;;;;;;;8.52;3.97;;;22.40;66.50;;;;;;5016293;28;20109;-73
2023/07/05 13:07:22;;;;;;;13.52;7.40;;;23.00;66.70;;;;;;5014509;28;20045;-73